C2 — ZCYD3 — position and weather

sailwx.info

Track history (hours):
 
Tides and Currents Weather Stations Pressure Air Temp Water Temp Dewpoint Dewpoint Depression Visibility Wind Speed Wind Dir Waves Ship Positions

C2

Last reported at 2015-Jul-02 03:29 UTC. Time now 2015-Jul-06 09:13 UTC.
Position N 42°57' E 006°22'.

Length 79 m; draft 3.4 m.

Type: Pleasure craft. MMSI: 319268000.

Date/timePositionNaut miles runAvg speedWind from/ knotsBaromVisibWave heightAir tempDewpointWater temp
2015-Jul-02 03:29N 42°57' E 006°22'3114.9
2015-Jul-02 01:25N 43°18' E 006°53'1315.5
2015-Jul-02 00:33N 43°28' E 007°04'5 4.7
2015-Jul-01 23:31N 43°33' E 007°07'0 0.0
2015-Jul-01 22:19N 43°33' E 007°07'0 0.0
2015-Jul-01 21:31N 43°33' E 007°07'27 2.5
2015-Jul-01 10:34N 43°14' E 006°40'1313.4
2015-Jul-01 09:33N 43°23' E 006°54'1413.0
2015-Jul-01 08:30N 43°33' E 007°07'2 1.0
2015-Jul-01 06:33N 43°33' E 007°09'2 1.4
2015-Jul-01 05:23N 43°35' E 007°08'0 0.0
2015-Jul-01 04:29N 43°35' E 007°08'0 0.0
2015-Jul-01 03:29N 43°35' E 007°08'0 0.0
2015-Jul-01 02:29N 43°35' E 007°08'0 0.0
2015-Jul-01 01:29N 43°35' E 007°08'0 0.0
2015-Jul-01 00:29N 43°35' E 007°08'0 0.0
2015-Jun-30 23:29N 43°35' E 007°08'0 0.0
2015-Jun-30 22:17N 43°35' E 007°08'0 0.0
2015-Jun-30 21:29N 43°35' E 007°08'0 0.0
2015-Jun-30 20:29N 43°35' E 007°08'0 0.0
2015-Jun-30 19:29N 43°35' E 007°08'0 0.0
2015-Jun-30 18:29N 43°35' E 007°08'0 0.0
2015-Jun-30 17:29N 43°35' E 007°08'0 0.0
2015-Jun-30 16:29N 43°35' E 007°08'0 0.0
2015-Jun-30 15:29N 43°35' E 007°08'0 0.0
2015-Jun-30 14:29N 43°35' E 007°08'0 0.0
2015-Jun-30 13:29N 43°35' E 007°08'0 0.0
2015-Jun-30 12:29N 43°35' E 007°08'0 0.0
2015-Jun-30 11:29N 43°35' E 007°08'0 0.0
2015-Jun-30 10:29N 43°35' E 007°08'0 0.0
2015-Jun-30 09:29N 43°35' E 007°08'3 3.0
2015-Jun-30 08:34N 43°32' E 007°08'1 0.8
2015-Jun-30 07:29N 43°33' E 007°07'0 0.0
2015-Jun-30 06:23N 43°33' E 007°07'0 0.0
2015-Jun-30 05:29N 43°33' E 007°07'0 0.0
2015-Jun-30 04:17N 43°33' E 007°07'0 0.0
2015-Jun-30 03:23N 43°33' E 007°07'0 0.0
2015-Jun-30 01:05N 43°33' E 007°07'0 0.0
2015-Jun-30 00:17N 43°33' E 007°07'0 0.0
2015-Jun-29 23:23N 43°33' E 007°07'0 0.0
2015-Jun-29 22:23N 43°33' E 007°07'0 0.0
2015-Jun-29 21:17N 43°33' E 007°07'0 0.0
2015-Jun-29 20:29N 43°33' E 007°07'0 0.0
2015-Jun-29 19:29N 43°33' E 007°07'0 0.0
2015-Jun-29 18:11N 43°33' E 007°07'0 0.0
2015-Jun-29 17:29N 43°33' E 007°07'0 0.0
2015-Jun-29 16:29N 43°33' E 007°07'0 0.0
2015-Jun-29 15:29N 43°33' E 007°07'0 0.0
2015-Jun-29 14:29N 43°33' E 007°07'0 0.0
2015-Jun-29 13:29N 43°33' E 007°07'0 0.0
2015-Jun-29 12:29N 43°33' E 007°07'0 0.0
2015-Jun-29 11:29N 43°33' E 007°07'0 0.0
2015-Jun-29 10:32N 43°33' E 007°07'0 0.0
2015-Jun-29 09:29N 43°33' E 007°07'0 0.0
2015-Jun-29 08:29N 43°33' E 007°07'0 0.0
2015-Jun-29 06:29N 43°33' E 007°07'0 0.0
2015-Jun-29 02:23N 43°33' E 007°07'0 0.0
2015-Jun-29 01:17N 43°33' E 007°07'0 0.0
2015-Jun-29 00:32N 43°33' E 007°07'0 0.0
2015-Jun-28 22:05N 43°33' E 007°07'0 0.0
2015-Jun-28 21:29N 43°33' E 007°07'0 0.0
2015-Jun-28 20:29N 43°33' E 007°07'0 0.0
2015-Jun-28 19:23N 43°33' E 007°07'0 0.0
2015-Jun-28 18:29N 43°33' E 007°07'0 0.0
2015-Jun-28 17:29N 43°33' E 007°07'0 0.0
2015-Jun-28 16:29N 43°33' E 007°07'0 0.0
2015-Jun-28 15:29N 43°33' E 007°07'0 0.0
2015-Jun-28 14:29N 43°33' E 007°07'0 0.1
2015-Jun-28 13:33N 43°33' E 007°07'7 5.4
2015-Jun-28 12:13N 43°39' E 007°11'0 0.0
2015-Jun-28 11:19N 43°39' E 007°11'0 0.0
2015-Jun-28 10:31N 43°39' E 007°11'0 0.0
2015-Jun-28 09:31N 43°39' E 007°11'0 0.0
2015-Jun-28 08:25N 43°39' E 007°11'0 0.0
2015-Jun-28 07:31N 43°39' E 007°11'0 0.0
2015-Jun-28 06:25N 43°39' E 007°11'0 0.0
2015-Jun-28 05:31N 43°39' E 007°11'9 7.3
2015-Jun-28 04:19N 43°40' E 007°23'1215.4
2015-Jun-28 03:34N 43°43' E 007°38'1615.6
2015-Jun-28 02:33N 43°47' E 007°59'1515.5
2015-Jun-28 01:33N 43°54' E 008°18'1515.5
2015-Jun-28 00:33N 44°02' E 008°37'1515.1
2015-Jun-27 23:33N 44°09' E 008°55'1515.1
2015-Jun-27 22:33N 44°17' E 009°13'1 1.0
2015-Jun-27 21:33N 44°18' E 009°14'0 0.0
2015-Jun-27 20:30N 44°18' E 009°14'0 0.0
2015-Jun-27 19:33N 44°18' E 009°14'0 0.0
2015-Jun-27 16:12N 44°18' E 009°14'0 0.0
2015-Jun-27 15:30N 44°18' E 009°14'0 0.0
2015-Jun-27 14:12N 44°18' E 009°14'0 0.0
2015-Jun-27 04:27N 44°18' E 009°14'0 0.0
2015-Jun-27 03:32N 44°18' E 009°14'0 0.0
2015-Jun-27 02:33N 44°18' E 009°14'0 0.0
2015-Jun-27 00:27N 44°18' E 009°14'0 0.0
2015-Jun-26 23:33N 44°18' E 009°14'0 0.0
2015-Jun-26 22:30N 44°18' E 009°14'0 0.0
2015-Jun-26 21:29N 44°18' E 009°14'0 0.0
2015-Jun-26 20:33N 44°18' E 009°14'0 0.0
2015-Jun-26 19:33N 44°18' E 009°14'0 0.0
2015-Jun-26 18:32N 44°18' E 009°14'0 0.0
2015-Jun-26 17:17N 44°18' E 009°14'0 0.0
2015-Jun-26 16:33N 44°18' E 009°14'0 0.0
2015-Jun-26 15:33N 44°18' E 009°14'0 0.0
2015-Jun-26 14:17N 44°18' E 009°14'0 0.0
2015-Jun-26 13:29N 44°18' E 009°13'0 0.0
2015-Jun-26 05:12N 44°18' E 009°13'710.2
2015-Jun-26 04:33N 44°14' E 009°06'1515.2
2015-Jun-26 03:33N 44°07' E 008°48'6414.3
2015-Jun-25 23:05N 43°41' E 007°26'611.3
2015-Jun-25 22:32N 43°41' E 007°18'0 0.1
2015-Jun-25 19:30N 43°41' E 007°18'0 0.0
2015-Jun-25 18:24N 43°41' E 007°18'0 0.0
2015-Jun-25 16:30N 43°41' E 007°18'0 0.0
2015-Jun-25 15:25N 43°41' E 007°18'1011.2
2015-Jun-25 14:33N 43°33' E 007°10'3 2.3
2015-Jun-25 13:27N 43°33' E 007°07'0 0.0
2015-Jun-25 12:33N 43°33' E 007°07'0 0.1
2015-Jun-25 11:33N 43°33' E 007°07'0 0.0
2015-Jun-25 10:33N 43°33' E 007°07'0 0.2
2015-Jun-25 09:11N 43°33' E 007°07'0 0.0
2015-Jun-25 06:23N 43°33' E 007°07'0 0.0
2015-Jun-25 04:23N 43°33' E 007°07'0 0.0
2015-Jun-25 02:11N 43°33' E 007°07'0 0.0
2015-Jun-25 00:23N 43°33' E 007°07'4 4.2
2015-Jun-24 23:22N 43°31' E 007°01'0 0.0
2015-Jun-24 14:32N 43°31' E 007°01'4 4.6
2015-Jun-24 13:33N 43°33' E 007°07'0 0.0
2015-Jun-24 12:21N 43°33' E 007°07'0 0.0
2015-Jun-24 11:33N 43°33' E 007°07'0 0.0
2015-Jun-24 10:33N 43°33' E 007°07'1 0.7
2015-Jun-24 09:34N 43°33' E 007°06'0 0.0
2015-Jun-24 08:30N 43°33' E 007°06'0 0.0
2015-Jun-24 07:30N 43°33' E 007°06'0 0.0
2015-Jun-24 06:30N 43°33' E 007°06'0 0.0
2015-Jun-24 05:30N 43°33' E 007°06'0 0.0
2015-Jun-24 04:30N 43°33' E 007°06'0 0.0
2015-Jun-24 03:30N 43°33' E 007°06'0 0.0
2015-Jun-24 02:30N 43°33' E 007°06'0 0.0
2015-Jun-24 01:30N 43°33' E 007°06'0 0.0
2015-Jun-24 00:30N 43°33' E 007°06'0 0.0
2015-Jun-23 23:30N 43°33' E 007°06'0 0.0
2015-Jun-23 22:25N 43°33' E 007°06'1 1.5
2015-Jun-23 21:27N 43°33' E 007°04'0 0.0
2015-Jun-23 20:09N 43°33' E 007°04'0 0.0
2015-Jun-23 19:21N 43°33' E 007°04'0 0.0
2015-Jun-23 19:03N 43°33' E 007°04'7 0.3
2015-Jun-22 19:27N 43°39' E 007°11'0 0.0
2015-Jun-22 18:33N 43°39' E 007°11'0 0.0
2015-Jun-22 17:24N 43°39' E 007°11'0 0.0
2015-Jun-22 16:26N 43°39' E 007°11'0 0.0
2015-Jun-22 14:27N 43°39' E 007°11'0 0.0
2015-Jun-22 13:33N 43°39' E 007°11'0 0.0
2015-Jun-22 12:33N 43°39' E 007°11'0 0.0
2015-Jun-22 11:33N 43°39' E 007°11'0 0.0
2015-Jun-22 10:33N 43°39' E 007°11'0 0.0
2015-Jun-22 09:30N 43°39' E 007°11'0 0.0
2015-Jun-22 08:33N 43°39' E 007°11'0 0.0
2015-Jun-22 07:33N 43°39' E 007°11'0 0.0
2015-Jun-22 06:33N 43°39' E 007°11'0 0.0
2015-Jun-22 05:33N 43°39' E 007°11'0 0.0
2015-Jun-22 04:32N 43°39' E 007°11'0 0.0
2015-Jun-22 03:33N 43°39' E 007°11'  
Track history (hours):
 
Tides and Currents Weather Stations Pressure Air Temp Water Temp Dewpoint Dewpoint Depression Visibility Wind Speed Wind Dir Waves Ship Positions

C2

Last reported at 2015-Jul-02 03:29 UTC. Time now 2015-Jul-06 09:13 UTC.
Position N 42°57' E 006°22'.

Length 79 m; draft 3.4 m.

Type: Pleasure craft. MMSI: 319268000.

Date/timePositionNaut miles runAvg speedWind from/ knotsBaromVisibWave heightAir tempDewpointWater temp
2015-Jul-02 03:29N 42°57' E 006°22'3114.9
2015-Jul-02 01:25N 43°18' E 006°53'1315.5
2015-Jul-02 00:33N 43°28' E 007°04'5 4.7
2015-Jul-01 23:31N 43°33' E 007°07'0 0.0
2015-Jul-01 22:19N 43°33' E 007°07'0 0.0
2015-Jul-01 21:31N 43°33' E 007°07'27 2.5
2015-Jul-01 10:34N 43°14' E 006°40'1313.4
2015-Jul-01 09:33N 43°23' E 006°54'1413.0
2015-Jul-01 08:30N 43°33' E 007°07'2 1.0
2015-Jul-01 06:33N 43°33' E 007°09'2 1.4
2015-Jul-01 05:23N 43°35' E 007°08'0 0.0
2015-Jul-01 04:29N 43°35' E 007°08'0 0.0
2015-Jul-01 03:29N 43°35' E 007°08'0 0.0
2015-Jul-01 02:29N 43°35' E 007°08'0 0.0
2015-Jul-01 01:29N 43°35' E 007°08'0 0.0
2015-Jul-01 00:29N 43°35' E 007°08'0 0.0
2015-Jun-30 23:29N 43°35' E 007°08'0 0.0
2015-Jun-30 22:17N 43°35' E 007°08'0 0.0
2015-Jun-30 21:29N 43°35' E 007°08'0 0.0
2015-Jun-30 20:29N 43°35' E 007°08'0 0.0
2015-Jun-30 19:29N 43°35' E 007°08'0 0.0
2015-Jun-30 18:29N 43°35' E 007°08'0 0.0
2015-Jun-30 17:29N 43°35' E 007°08'0 0.0
2015-Jun-30 16:29N 43°35' E 007°08'0 0.0
2015-Jun-30 15:29N 43°35' E 007°08'0 0.0
2015-Jun-30 14:29N 43°35' E 007°08'0 0.0
2015-Jun-30 13:29N 43°35' E 007°08'0 0.0
2015-Jun-30 12:29N 43°35' E 007°08'0 0.0
2015-Jun-30 11:29N 43°35' E 007°08'0 0.0
2015-Jun-30 10:29N 43°35' E 007°08'0 0.0
2015-Jun-30 09:29N 43°35' E 007°08'3 3.0
2015-Jun-30 08:34N 43°32' E 007°08'1 0.8
2015-Jun-30 07:29N 43°33' E 007°07'0 0.0
2015-Jun-30 06:23N 43°33' E 007°07'0 0.0
2015-Jun-30 05:29N 43°33' E 007°07'0 0.0
2015-Jun-30 04:17N 43°33' E 007°07'0 0.0
2015-Jun-30 03:23N 43°33' E 007°07'0 0.0
2015-Jun-30 01:05N 43°33' E 007°07'0 0.0
2015-Jun-30 00:17N 43°33' E 007°07'0 0.0
2015-Jun-29 23:23N 43°33' E 007°07'0 0.0
2015-Jun-29 22:23N 43°33' E 007°07'0 0.0
2015-Jun-29 21:17N 43°33' E 007°07'0 0.0
2015-Jun-29 20:29N 43°33' E 007°07'0 0.0
2015-Jun-29 19:29N 43°33' E 007°07'0 0.0
2015-Jun-29 18:11N 43°33' E 007°07'0 0.0
2015-Jun-29 17:29N 43°33' E 007°07'0 0.0
2015-Jun-29 16:29N 43°33' E 007°07'0 0.0
2015-Jun-29 15:29N 43°33' E 007°07'0 0.0
2015-Jun-29 14:29N 43°33' E 007°07'0 0.0
2015-Jun-29 13:29N 43°33' E 007°07'0 0.0
2015-Jun-29 12:29N 43°33' E 007°07'0 0.0
2015-Jun-29 11:29N 43°33' E 007°07'0 0.0
2015-Jun-29 10:32N 43°33' E 007°07'0 0.0
2015-Jun-29 09:29N 43°33' E 007°07'0 0.0
2015-Jun-29 08:29N 43°33' E 007°07'0 0.0
2015-Jun-29 06:29N 43°33' E 007°07'0 0.0
2015-Jun-29 02:23N 43°33' E 007°07'0 0.0
2015-Jun-29 01:17N 43°33' E 007°07'0 0.0
2015-Jun-29 00:32N 43°33' E 007°07'0 0.0
2015-Jun-28 22:05N 43°33' E 007°07'0 0.0
2015-Jun-28 21:29N 43°33' E 007°07'0 0.0
2015-Jun-28 20:29N 43°33' E 007°07'0 0.0
2015-Jun-28 19:23N 43°33' E 007°07'0 0.0
2015-Jun-28 18:29N 43°33' E 007°07'0 0.0
2015-Jun-28 17:29N 43°33' E 007°07'0 0.0
2015-Jun-28 16:29N 43°33' E 007°07'0 0.0
2015-Jun-28 15:29N 43°33' E 007°07'0 0.0
2015-Jun-28 14:29N 43°33' E 007°07'0 0.1
2015-Jun-28 13:33N 43°33' E 007°07'7 5.4
2015-Jun-28 12:13N 43°39' E 007°11'0 0.0
2015-Jun-28 11:19N 43°39' E 007°11'0 0.0
2015-Jun-28 10:31N 43°39' E 007°11'0 0.0
2015-Jun-28 09:31N 43°39' E 007°11'0 0.0
2015-Jun-28 08:25N 43°39' E 007°11'0 0.0
2015-Jun-28 07:31N 43°39' E 007°11'0 0.0
2015-Jun-28 06:25N 43°39' E 007°11'0 0.0
2015-Jun-28 05:31N 43°39' E 007°11'9 7.3
2015-Jun-28 04:19N 43°40' E 007°23'1215.4
2015-Jun-28 03:34N 43°43' E 007°38'1615.6
2015-Jun-28 02:33N 43°47' E 007°59'1515.5
2015-Jun-28 01:33N 43°54' E 008°18'1515.5
2015-Jun-28 00:33N 44°02' E 008°37'1515.1
2015-Jun-27 23:33N 44°09' E 008°55'1515.1
2015-Jun-27 22:33N 44°17' E 009°13'1 1.0
2015-Jun-27 21:33N 44°18' E 009°14'0 0.0
2015-Jun-27 20:30N 44°18' E 009°14'0 0.0
2015-Jun-27 19:33N 44°18' E 009°14'0 0.0
2015-Jun-27 16:12N 44°18' E 009°14'0 0.0
2015-Jun-27 15:30N 44°18' E 009°14'0 0.0
2015-Jun-27 14:12N 44°18' E 009°14'0 0.0
2015-Jun-27 04:27N 44°18' E 009°14'0 0.0
2015-Jun-27 03:32N 44°18' E 009°14'0 0.0
2015-Jun-27 02:33N 44°18' E 009°14'0 0.0
2015-Jun-27 00:27N 44°18' E 009°14'0 0.0
2015-Jun-26 23:33N 44°18' E 009°14'0 0.0
2015-Jun-26 22:30N 44°18' E 009°14'0 0.0
2015-Jun-26 21:29N 44°18' E 009°14'0 0.0
2015-Jun-26 20:33N 44°18' E 009°14'0 0.0
2015-Jun-26 19:33N 44°18' E 009°14'0 0.0
2015-Jun-26 18:32N 44°18' E 009°14'0 0.0
2015-Jun-26 17:17N 44°18' E 009°14'0 0.0
2015-Jun-26 16:33N 44°18' E 009°14'0 0.0
2015-Jun-26 15:33N 44°18' E 009°14'0 0.0
2015-Jun-26 14:17N 44°18' E 009°14'0 0.0
2015-Jun-26 13:29N 44°18' E 009°13'0 0.0
2015-Jun-26 05:12N 44°18' E 009°13'710.2
2015-Jun-26 04:33N 44°14' E 009°06'1515.2
2015-Jun-26 03:33N 44°07' E 008°48'6414.3
2015-Jun-25 23:05N 43°41' E 007°26'611.3
2015-Jun-25 22:32N 43°41' E 007°18'0 0.1
2015-Jun-25 19:30N 43°41' E 007°18'0 0.0
2015-Jun-25 18:24N 43°41' E 007°18'0 0.0
2015-Jun-25 16:30N 43°41' E 007°18'0 0.0
2015-Jun-25 15:25N 43°41' E 007°18'1011.2
2015-Jun-25 14:33N 43°33' E 007°10'3 2.3
2015-Jun-25 13:27N 43°33' E 007°07'0 0.0
2015-Jun-25 12:33N 43°33' E 007°07'0 0.1
2015-Jun-25 11:33N 43°33' E 007°07'0 0.0
2015-Jun-25 10:33N 43°33' E 007°07'0 0.2
2015-Jun-25 09:11N 43°33' E 007°07'0 0.0
2015-Jun-25 06:23N 43°33' E 007°07'0 0.0
2015-Jun-25 04:23N 43°33' E 007°07'0 0.0
2015-Jun-25 02:11N 43°33' E 007°07'0 0.0
2015-Jun-25 00:23N 43°33' E 007°07'4 4.2
2015-Jun-24 23:22N 43°31' E 007°01'0 0.0
2015-Jun-24 14:32N 43°31' E 007°01'4 4.6
2015-Jun-24 13:33N 43°33' E 007°07'0 0.0
2015-Jun-24 12:21N 43°33' E 007°07'0 0.0
2015-Jun-24 11:33N 43°33' E 007°07'0 0.0
2015-Jun-24 10:33N 43°33' E 007°07'1 0.7
2015-Jun-24 09:34N 43°33' E 007°06'0 0.0
2015-Jun-24 08:30N 43°33' E 007°06'0 0.0
2015-Jun-24 07:30N 43°33' E 007°06'0 0.0
2015-Jun-24 06:30N 43°33' E 007°06'0 0.0
2015-Jun-24 05:30N 43°33' E 007°06'0 0.0
2015-Jun-24 04:30N 43°33' E 007°06'0 0.0
2015-Jun-24 03:30N 43°33' E 007°06'0 0.0
2015-Jun-24 02:30N 43°33' E 007°06'0 0.0
2015-Jun-24 01:30N 43°33' E 007°06'0 0.0
2015-Jun-24 00:30N 43°33' E 007°06'0 0.0
2015-Jun-23 23:30N 43°33' E 007°06'0 0.0
2015-Jun-23 22:25N 43°33' E 007°06'1 1.5
2015-Jun-23 21:27N 43°33' E 007°04'0 0.0
2015-Jun-23 20:09N 43°33' E 007°04'0 0.0
2015-Jun-23 19:21N 43°33' E 007°04'0 0.0
2015-Jun-23 19:03N 43°33' E 007°04'7 0.3
2015-Jun-22 19:27N 43°39' E 007°11'0 0.0
2015-Jun-22 18:33N 43°39' E 007°11'0 0.0
2015-Jun-22 17:24N 43°39' E 007°11'0 0.0
2015-Jun-22 16:26N 43°39' E 007°11'0 0.0
2015-Jun-22 14:27N 43°39' E 007°11'0 0.0
2015-Jun-22 13:33N 43°39' E 007°11'0 0.0
2015-Jun-22 12:33N 43°39' E 007°11'0 0.0
2015-Jun-22 11:33N 43°39' E 007°11'0 0.0
2015-Jun-22 10:33N 43°39' E 007°11'0 0.0
2015-Jun-22 09:30N 43°39' E 007°11'0 0.0
2015-Jun-22 08:33N 43°39' E 007°11'0 0.0
2015-Jun-22 07:33N 43°39' E 007°11'0 0.0
2015-Jun-22 06:33N 43°39' E 007°11'0 0.0
2015-Jun-22 05:33N 43°39' E 007°11'0 0.0
2015-Jun-22 04:32N 43°39' E 007°11'0 0.0
2015-Jun-22 03:33N 43°39' E 007°11'  

Dump ship's entire track history